Time;durP1;ratioP1;P1;durP2;ratioP2;P2;SDS_P1;SDS_P2;PMS_P1;PMS_P2;Temp;Humidity;BMP_temperature;BMP_pressure;BME280_temperature;BME280_humidity;BME280_pressure;Samples;Min_cycle;Max_cycle;Signal;HPM_P1;HPM_P2
2022/05/19 00:02:08;;;;;;;9.43;8.27;;;;;;;10.62;100.00;100588.59;5091351;28;20206;-61
2022/05/19 00:04:36;;;;;;;12.27;7.53;;;;;;;10.66;100.00;100582.50;5091237;28;20397;-61
2022/05/19 00:07:04;;;;;;;11.50;8.30;;;;;;;10.53;100.00;100573.97;5091232;28;20197;-63
2022/05/19 00:09:31;;;;;;;9.13;7.57;;;;;;;10.63;100.00;100591.16;5091178;28;20195;-63
2022/05/19 00:12:01;;;;;;;9.73;8.23;;;;;;;10.68;100.00;100585.94;5090920;28;20195;-60
2022/05/19 00:14:28;;;;;;;9.53;8.63;;;;;;;10.71;100.00;100597.16;5090963;28;20198;-61
2022/05/19 00:16:57;;;;;;;9.97;8.97;;;;;;;10.78;100.00;100600.53;5089982;28;20200;-62
2022/05/19 00:19:26;;;;;;;13.30;8.23;;;;;;;10.80;100.00;100597.03;5090902;28;20223;-61
2022/05/19 00:21:55;;;;;;;11.87;7.87;;;;;;;10.71;100.00;100585.91;5090745;28;20199;-61
2022/05/19 00:24:22;;;;;;;9.00;8.10;;;;;;;10.75;100.00;100597.94;5090887;28;20196;-60
2022/05/19 00:26:49;;;;;;;8.40;7.47;;;;;;;10.74;100.00;100602.28;5090742;28;20559;-60
2022/05/19 00:29:17;;;;;;;8.80;8.00;;;;;;;10.70;100.00;100590.25;5090626;28;20197;-62
2022/05/19 00:31:44;;;;;;;8.43;7.63;;;;;;;10.79;100.00;100597.91;5090746;28;20221;-61
2022/05/19 00:34:11;;;;;;;16.20;8.23;;;;;;;10.80;100.00;100591.84;5090726;28;20198;-62
2022/05/19 00:36:38;;;;;;;9.17;7.60;;;;;;;10.84;100.00;100593.50;5089787;28;20206;-61
2022/05/19 00:39:08;;;;;;;8.87;7.70;;;;;;;10.80;100.00;100575.41;5090326;28;20233;-63
2022/05/19 00:41:35;;;;;;;11.97;8.83;;;;;;;10.76;100.00;100587.53;5090539;28;20210;-61
2022/05/19 00:44:04;;;;;;;10.40;9.30;;;;;;;10.74;100.00;100588.44;5090261;28;20289;-61
2022/05/19 00:46:41;;;;;;;9.10;8.20;;;;;;;10.78;100.00;100592.72;5090372;28;20244;-60
2022/05/19 00:49:13;;;;;;;9.07;8.23;;;;;;;10.81;100.00;100592.69;5090900;28;20241;-61
2022/05/19 00:51:46;;;;;;;10.43;9.40;;;;;;;10.83;100.00;100588.34;5090598;28;20205;-59
2022/05/19 00:54:18;;;;;;;12.13;9.73;;;;;;;10.81;100.00;100579.72;5090317;28;20223;-60
2022/05/19 00:56:49;;;;;;;16.83;10.63;;;;;;;10.71;100.00;100586.75;5089966;28;20231;-60
2022/05/19 00:59:22;;;;;;;14.67;10.63;;;;;;;10.64;100.00;100590.28;5090109;28;20227;-60
2022/05/19 01:01:50;;;;;;;13.97;11.23;;;;;;;10.51;100.00;100588.72;5090268;28;20285;-60
2022/05/19 01:04:23;;;;;;;17.37;11.93;;;;;;;10.31;100.00;100556.94;5090178;28;20199;-60
2022/05/19 01:06:57;;;;;;;15.10;11.80;;;;;;;10.40;100.00;100588.84;5089967;28;20196;-61
2022/05/19 01:09:26;;;;;;;13.20;11.00;;;;;;;10.32;100.00;100582.00;5089299;28;20230;-61
2022/05/19 01:11:55;;;;;;;14.10;11.93;;;;;;;10.34;100.00;100590.66;5090014;28;20202;-61
2022/05/19 01:14:24;;;;;;;14.47;10.90;;;;;;;10.43;100.00;100582.75;5090125;28;20202;-62
2022/05/19 01:16:51;;;;;;;15.67;11.53;;;;;;;10.45;100.00;100579.28;5090128;28;20282;-62
2022/05/19 01:19:27;;;;;;;15.73;11.33;;;;;;;10.39;100.00;100583.66;5089844;28;20223;-62
2022/05/19 01:21:59;;;;;;;17.37;10.63;;;;;;;10.32;100.00;100576.81;5090135;28;20201;-62
2022/05/19 01:24:35;;;;;;;15.50;11.10;;;;;;;10.27;100.00;100583.81;5089991;28;20202;-62
2022/05/19 01:27:04;;;;;;;12.00;10.47;;;;;;;10.28;100.00;100581.19;5090084;28;20190;-62
2022/05/19 01:29:31;;;;;;;10.63;9.10;;;;;;;10.29;100.00;100579.44;5089979;28;20631;-62
2022/05/19 01:31:59;;;;;;;9.90;8.90;;;;;;;10.27;100.00;100574.25;5089909;28;20245;-63
2022/05/19 01:34:30;;;;;;;13.40;9.20;;;;;;;10.21;100.00;100576.94;5090186;28;20731;-64
2022/05/19 01:36:57;;;;;;;7.40;6.77;;;;;;;10.22;100.00;100577.81;5090118;28;20273;-63
2022/05/19 01:39:27;;;;;;;11.03;7.00;;;;;;;10.17;100.00;100583.00;5089858;28;20241;-64
2022/05/19 01:42:05;;;;;;;8.10;6.27;;;;;;;10.19;100.00;100582.13;5089963;28;20583;-63
2022/05/19 01:44:45;;;;;;;7.80;5.90;;;;;;;10.25;100.00;100581.22;5089598;28;20266;-65
2022/05/19 01:47:19;;;;;;;8.03;6.70;;;;;;;10.21;100.00;100578.69;5090118;28;20680;-61
2022/05/19 01:49:53;;;;;;;12.00;5.70;;;;;;;10.20;100.00;100583.00;5089993;28;20191;-62
2022/05/19 01:52:25;;;;;;;6.00;5.50;;;;;;;10.10;100.00;100574.41;5089800;28;20762;-62
2022/05/19 01:55:00;;;;;;;6.63;6.07;;;;;;;10.14;100.00;100578.72;5089520;28;20199;-62
2022/05/19 01:57:32;;;;;;;5.80;5.40;;;;;;;10.05;100.00;100570.13;5089825;28;20662;-61
2022/05/19 02:00:08;;;;;;;8.63;6.23;;;;;;;10.13;100.00;100582.19;5089611;28;20234;-60
2022/05/19 02:02:42;;;;;;;6.07;5.33;;;;;;;10.19;100.00;100579.53;5089575;28;20203;-61
2022/05/19 02:05:18;;;;;;;6.23;5.63;;;;;;;10.16;100.00;100582.13;5089530;28;20201;-61
2022/05/19 02:07:49;;;;;;;5.67;5.23;;;;;;;10.10;100.00;100592.59;5090641;28;20289;-61
2022/05/19 02:10:21;;;;;;;8.63;5.87;;;;;;;10.13;100.00;100592.56;5093525;28;20202;-63
2022/05/19 02:12:50;;;;;;;9.03;6.10;;;;;;;10.11;100.00;100594.31;5093532;28;20196;-63
2022/05/19 02:15:21;;;;;;;6.53;5.87;;;;;;;10.06;100.00;100584.84;5093608;28;20205;-63
2022/05/19 02:17:50;;;;;;;6.10;5.50;;;;;;;10.08;100.00;100573.56;5093648;28;20595;-65
2022/05/19 02:20:20;;;;;;;6.10;5.60;;;;;;;10.09;100.00;100584.81;5093806;28;20229;-65
2022/05/19 02:22:47;;;;;;;7.80;5.73;;;;;;;10.04;100.00;100586.59;5093548;28;20286;-63
2022/05/19 02:25:19;;;;;;;5.93;5.40;;;;;;;9.96;100.00;100581.47;5093334;28;20200;-63
2022/05/19 02:27:52;;;;;;;6.30;5.70;;;;;;;9.98;100.00;100587.50;5093216;28;20209;-62
2022/05/19 02:30:22;;;;;;;5.83;5.43;;;;;;;9.95;100.00;100584.06;5093071;28;20191;-62
2022/05/19 02:32:49;;;;;;;5.40;4.80;;;;;;;9.87;100.00;100589.34;5093223;28;20205;-62
2022/05/19 02:35:18;;;;;;;5.43;4.93;;;;;;;9.86;100.00;100585.03;5093355;28;20560;-62
2022/05/19 02:37:45;;;;;;;7.03;5.10;;;;;;;9.77;100.00;100590.28;5092907;28;20196;-61
2022/05/19 02:40:15;;;;;;;4.87;4.47;;;;;;;9.81;100.00;100595.44;5092758;28;20225;-61
2022/05/19 02:42:42;;;;;;;5.40;5.00;;;;;;;9.77;100.00;100592.88;5091945;28;20282;-61
2022/05/19 02:45:12;;;;;;;5.37;4.60;;;;;;;9.72;100.00;100584.28;5092191;28;20738;-61
2022/05/19 02:47:39;;;;;;;5.90;5.10;;;;;;;9.54;100.00;100574.94;5091546;28;20202;-61
2022/05/19 02:50:08;;;;;;;5.17;4.17;;;;;;;9.30;100.00;100560.41;5091322;28;20206;-60
2022/05/19 02:52:35;;;;;;;4.87;4.30;;;;;;;9.50;100.00;100593.09;5091130;28;20202;-62
2022/05/19 02:55:03;;;;;;;5.00;4.13;;;;;;;9.51;100.00;100594.81;5088799;28;20223;-62
2022/05/19 02:57:30;;;;;;;4.60;4.20;;;;;;;9.53;100.00;100593.06;5092109;28;20219;-60
2022/05/19 02:59:57;;;;;;;5.93;4.10;;;;;;;9.60;100.00;100598.19;5091833;28;20234;-59
2022/05/19 03:02:25;;;;;;;4.93;4.10;;;;;;;9.62;100.00;100591.28;5091282;28;20223;-60
2022/05/19 03:04:53;;;;;;;5.10;4.53;;;;;;;9.58;100.00;100587.00;5091459;28;20671;-59
2022/05/19 03:07:20;;;;;;;4.33;4.00;;;;;;;9.63;100.00;100587.81;5091057;28;20219;-58
2022/05/19 03:09:47;;;;;;;5.27;4.70;;;;;;;9.65;100.00;100600.75;5091629;28;20226;-60
2022/05/19 03:12:14;;;;;;;4.40;4.00;;;;;;;9.72;100.00;100599.81;5090186;28;20249;-59
2022/05/19 03:14:41;;;;;;;4.17;3.70;;;;;;;9.73;100.00;100602.41;5091938;28;20719;-60
2022/05/19 03:17:10;;;;;;;4.37;3.97;;;;;;;9.73;100.00;100596.38;5091141;28;20219;-59
2022/05/19 03:19:39;;;;;;;5.20;4.20;;;;;;;9.72;100.00;100605.88;5090867;28;20222;-57
2022/05/19 03:22:07;;;;;;;4.97;4.47;;;;;;;9.73;100.00;100602.41;5090750;28;20250;-59
2022/05/19 03:24:34;;;;;;;5.70;4.37;;;;;;;9.77;100.00;100603.25;5088917;28;20219;-62
2022/05/19 03:27:01;;;;;;;7.20;4.00;;;;;;;9.84;100.00;100612.69;5091865;28;20195;-62
2022/05/19 03:29:29;;;;;;;5.77;4.20;;;;;;;9.92;100.00;100607.47;5091899;28;20697;-62
2022/05/19 03:31:55;;;;;;;5.33;4.07;;;;;;;10.01;100.00;100608.25;5090723;28;20675;-62
2022/05/19 03:34:22;;;;;;;4.53;4.13;;;;;;;10.19;100.00;100621.06;5090333;28;20611;-62
2022/05/19 03:36:51;;;;;;;3.83;3.53;;;;;;;10.32;100.00;100631.31;5090617;28;20274;-62
2022/05/19 03:39:18;;;;;;;6.13;3.77;;;;;;;10.38;100.00;100620.91;5090298;28;20226;-62
2022/05/19 03:41:45;;;;;;;6.17;3.93;;;;;;;10.44;100.00;100626.88;5084682;28;20298;-62
2022/05/19 03:44:12;;;;;;;9.03;3.87;;;;;;;10.52;100.00;100622.44;5086770;28;20223;-62
2022/05/19 03:46:39;;;;;;;4.47;3.13;;;;;;;10.79;100.00;100628.22;5084963;28;20200;-62
2022/05/19 03:49:06;;;;;;;4.03;3.70;;;;;;;11.49;100.00;100624.69;5086915;28;20584;-62
2022/05/19 03:51:34;;;;;;;3.70;3.17;;;;;;;13.12;100.00;100632.16;5089236;28;20246;-62
2022/05/19 03:54:03;;;;;;;3.23;2.93;;;;;;;14.79;100.00;100635.88;5086024;28;20192;-63
2022/05/19 03:56:29;;;;;;;6.83;2.50;;;;;;;16.41;94.93;100640.34;5088886;28;20278;-63
2022/05/19 03:58:56;;;;;;;4.27;2.80;;;;;;;17.51;88.76;100628.41;5088779;28;20666;-62
2022/05/19 04:01:23;;;;;;;3.07;2.73;;;;;;;18.61;81.81;100646.63;5088132;28;20302;-63
2022/05/19 04:03:50;;;;;;;3.20;2.87;;;;;;;19.45;77.98;100648.88;5087968;28;20677;-63
2022/05/19 04:06:18;;;;;;;3.70;2.63;;;;;;;20.02;73.38;100652.31;5087198;28;20205;-63
2022/05/19 04:08:45;;;;;;;3.47;2.90;;;;;;;19.87;72.89;100653.91;5086241;28;20252;-63
2022/05/19 04:11:13;;;;;;;4.45;2.85;;;;;;;20.60;69.04;100649.38;5088059;28;20202;-63
2022/05/19 04:13:40;;;;;;;6.13;2.92;;;;;;;21.68;65.51;100662.81;5086785;28;20188;-63
2022/05/19 04:16:08;;;;;;;5.28;2.85;;;;;;;22.74;61.36;100658.34;5087397;28;20210;-62
2022/05/19 04:18:35;;;;;;;5.75;3.40;;;;;;;24.10;52.75;100655.00;5087881;28;20211;-62
2022/05/19 04:21:02;;;;;;;4.53;3.03;;;;;;;25.01;49.26;100662.03;5088302;28;20215;-64
2022/05/19 04:23:29;;;;;;;5.60;2.67;;;;;;;25.81;46.42;100659.81;5087812;28;20192;-63
2022/05/19 04:25:57;;;;;;;3.03;2.58;;;;;;;26.03;45.09;100655.44;5085748;28;20197;-65
2022/05/19 04:28:26;;;;;;;4.53;2.78;;;;;;;27.25;41.85;100656.63;5088452;28;20694;-64
2022/05/19 04:30:53;;;;;;;4.60;2.85;;;;;;;27.36;40.44;100659.28;5081509;28;20200;-59
2022/05/19 04:33:20;;;;;;;5.68;2.40;;;;;;;27.24;40.63;100654.94;5087918;28;20786;-63
2022/05/19 04:35:47;;;;;;;5.22;2.78;;;;;;;27.60;39.81;100645.81;5085577;28;20693;-63
2022/05/19 04:38:15;;;;;;;4.80;2.30;;;;;;;27.23;40.39;100647.06;5088114;28;20698;-63
2022/05/19 04:40:47;;;;;;;3.20;2.22;;;;;;;26.01;41.71;100645.88;5086520;28;20579;-64
2022/05/19 04:43:19;;;;;;;7.80;2.67;;;;;;;26.66;41.78;100648.84;5083300;28;20203;-67
2022/05/19 04:45:48;;;;;;;2.83;2.63;;;;;;;27.34;39.72;100631.88;5073812;28;20319;-67
2022/05/19 04:48:15;;;;;;;3.22;2.53;;;;;;;28.20;38.57;100651.56;5078582;28;20222;-66
2022/05/19 04:50:42;;;;;;;4.95;2.50;;;;;;;27.98;38.61;100645.31;5088272;28;20199;-66
2022/05/19 04:53:09;;;;;;;4.80;2.30;;;;;;;28.38;37.80;100652.66;5089405;28;20286;-59
2022/05/19 04:55:37;;;;;;;3.40;2.22;;;;;;;28.63;37.56;100652.25;5087836;28;20203;-59
2022/05/19 04:58:04;;;;;;;4.13;2.22;;;;;;;28.63;37.18;100654.09;5089158;28;20199;-58
2022/05/19 05:00:30;;;;;;;6.40;2.25;;;;;;;29.51;35.80;100657.84;5088756;28;20596;-65
2022/05/19 05:02:59;;;;;;;2.88;2.08;;;;;;;29.53;35.21;100653.22;5089489;28;20221;-60
2022/05/19 05:05:26;;;;;;;2.17;1.98;;;;;;;29.59;35.19;100655.31;5088315;28;20192;-59
2022/05/19 05:07:53;;;;;;;2.88;2.13;;;;;;;30.05;34.14;100653.84;5089621;28;20195;-59
2022/05/19 05:10:20;;;;;;;4.85;1.90;;;;;;;30.69;32.74;100655.91;5089348;28;20195;-59
2022/05/19 05:12:47;;;;;;;4.18;2.00;;;;;;;31.05;32.43;100665.75;5087852;28;20191;-58
2022/05/19 05:15:14;;;;;;;2.38;2.17;;;;;;;29.90;32.78;100660.59;5088158;28;20284;-60
2022/05/19 05:17:41;;;;;;;2.20;1.90;;;;;;;29.26;33.45;100663.66;5088852;28;20191;-59
2022/05/19 05:20:13;;;;;;;4.35;1.95;;;;;;;28.87;34.30;100665.34;5088805;28;20203;-59
2022/05/19 05:22:40;;;;;;;3.28;1.85;;;;;;;29.31;34.52;100669.47;5086016;28;20227;-58
2022/05/19 05:25:11;;;;;;;2.15;1.90;;;;;;;29.82;33.42;100673.81;5089328;28;20199;-59
2022/05/19 05:27:38;;;;;;;3.10;2.00;;;;;;;29.83;33.55;100668.31;5089672;28;20656;-67
2022/05/19 05:30:06;;;;;;;6.68;2.10;;;;;;;29.71;33.12;100671.25;5089813;28;20201;-66
2022/05/19 05:32:34;;;;;;;4.63;2.00;;;;;;;30.00;32.97;100657.94;5089577;28;20202;-66
2022/05/19 05:35:01;;;;;;;2.15;1.95;;;;;;;28.71;34.59;100671.13;5089819;28;20187;-65
2022/05/19 05:37:29;;;;;;;3.60;1.98;;;;;;;28.78;34.47;100669.66;5088733;28;20198;-67
2022/05/19 05:39:56;;;;;;;7.68;1.88;;;;;;;28.29;35.10;100669.47;5089058;28;20191;-59
2022/05/19 05:42:23;;;;;;;4.45;2.28;;;;;;;28.80;34.10;100665.03;5091848;28;20219;-58
2022/05/19 05:44:50;;;;;;;3.03;1.83;;;;;;;29.56;32.62;100668.16;5094100;28;20710;-58
2022/05/19 05:47:18;;;;;;;2.60;2.40;;;;;;;29.35;33.35;100668.19;5093506;28;20285;-59
2022/05/19 05:49:45;;;;;;;1.80;1.70;;;;;;;29.38;33.09;100665.28;5093379;28;20202;-58
2022/05/19 05:52:12;;;;;;;4.35;1.95;;;;;;;29.44;33.01;100663.91;5093124;28;20282;-58
2022/05/19 05:54:40;;;;;;;5.07;2.33;;;;;;;29.80;32.57;100671.25;5093181;28;20191;-59
2022/05/19 05:57:07;;;;;;;14.13;3.83;;;;;;;30.03;32.94;100665.66;5093739;28;20742;-66
2022/05/19 05:59:34;;;;;;;5.95;3.00;;;;;;;30.22;32.37;100655.81;5093106;28;20210;-57
2022/05/19 06:02:01;;;;;;;3.83;1.85;;;;;;;29.34;33.01;100668.34;5093249;28;20681;-59
2022/05/19 06:04:28;;;;;;;4.00;2.30;;;;;;;29.44;33.44;100662.06;5093027;28;20201;-59
2022/05/19 06:06:54;;;;;;;3.60;1.90;;;;;;;29.51;32.78;100665.88;5092841;28;20199;-59
2022/05/19 06:09:21;;;;;;;4.35;2.63;;;;;;;29.78;32.78;100664.38;5092293;28;20194;-59
2022/05/19 06:11:51;;;;;;;6.55;2.45;;;;;;;30.00;32.36;100664.16;5092985;28;20198;-58
2022/05/19 06:14:18;;;;;;;2.60;2.40;;;;;;;29.32;32.90;100663.13;5092051;28;20199;-58
2022/05/19 06:16:45;;;;;;;3.28;1.80;;;;;;;29.11;33.53;100665.03;5093046;28;20195;-60
2022/05/19 06:19:12;;;;;;;6.00;2.03;;;;;;;29.28;33.71;100669.72;5093126;28;20359;-58
2022/05/19 06:21:39;;;;;;;2.92;2.00;;;;;;;28.96;33.79;100663.69;5092731;28;20273;-59
2022/05/19 06:24:08;;;;;;;4.95;2.05;;;;;;;28.74;34.46;100662.88;5092913;28;20286;-60
2022/05/19 06:26:37;;;;;;;5.30;2.22;;;;;;;29.08;34.85;100666.16;5092779;28;20206;-59
2022/05/19 06:29:06;;;;;;;3.42;1.85;;;;;;;29.16;34.50;100662.78;5093194;28;20578;-59
2022/05/19 06:31:33;;;;;;;4.10;1.75;;;;;;;28.75;35.49;100653.88;5092858;28;20248;-59
2022/05/19 06:34:01;;;;;;;2.25;2.05;;;;;;;28.81;34.76;100666.72;5092963;28;20203;-60
2022/05/19 06:36:29;;;;;;;3.15;1.90;;;;;;;28.35;35.06;100656.44;5093089;28;20252;-61
2022/05/19 06:38:56;;;;;;;2.55;1.98;;;;;;;27.81;36.18;100659.19;5092738;28;20253;-59
2022/05/19 06:44:08;;;;;;;7.43;2.30;;;;;;;28.06;36.46;100655.34;5072344;28;20234;-58
2022/05/19 06:46:35;;;;;;;3.78;1.90;;;;;;;27.78;36.47;100667.44;5072153;28;20202;-63
2022/05/19 06:49:04;;;;;;;2.10;1.77;;;;;;;27.28;37.15;100660.88;5071704;28;20196;-63
2022/05/19 06:51:32;;;;;;;4.68;2.03;;;;;;;26.99;37.62;100649.84;5072578;28;20286;-62
2022/05/19 06:53:59;;;;;;;4.45;2.20;;;;;;;26.72;38.24;100659.03;5072283;28;20292;-62
2022/05/19 06:56:26;;;;;;;4.03;2.05;;;;;;;26.61;39.37;100667.00;5073226;28;20543;-64
2022/05/19 06:58:53;;;;;;;3.55;2.40;;;;;;;26.69;39.61;100661.94;5072880;28;20585;-61
2022/05/19 07:01:21;;;;;;;1.92;1.70;;;;;;;26.37;39.13;100660.91;5072544;28;20224;-63
2022/05/19 07:03:49;;;;;;;7.07;2.00;;;;;;;26.38;39.25;100667.94;5072680;28;20199;-62
2022/05/19 07:06:16;;;;;;;8.88;2.75;;;;;;;26.38;38.82;100650.13;5072901;28;20369;-64
2022/05/19 07:08:43;;;;;;;6.00;2.40;;;;;;;26.34;38.02;100664.63;5072382;28;20202;-62
2022/05/19 07:11:24;;;;;;;8.70;2.92;;;;;;;25.79;39.32;100657.25;5073038;28;20736;-63
2022/05/19 07:13:52;;;;;;;8.00;2.60;;;;;;;26.32;39.21;100663.06;5072700;28;20203;-62
2022/05/19 07:16:21;;;;;;;7.40;2.75;;;;;;;26.56;38.47;100647.00;5072424;28;20200;-62
2022/05/19 07:18:48;;;;;;;5.82;3.33;;;;;;;27.16;38.01;100662.72;5083934;28;20222;-62
2022/05/19 07:21:16;;;;;;;5.97;2.80;;;;;;;26.93;38.04;100661.00;5090332;28;20222;-62
2022/05/19 07:23:43;;;;;;;7.90;2.72;;;;;;;27.15;37.34;100660.16;5091658;28;20249;-61
2022/05/19 07:26:10;;;;;;;4.88;2.05;;;;;;;26.51;38.66;100652.72;5091746;28;20585;-61
2022/05/19 07:28:37;;;;;;;8.32;2.33;;;;;;;26.69;38.71;100655.75;5077707;28;20196;-63
2022/05/19 07:31:04;;;;;;;5.70;3.80;;;;;;;26.83;39.11;100654.69;5091847;28;20188;-63
2022/05/19 07:33:35;;;;;;;8.27;2.58;;;;;;;27.62;36.75;100654.53;5092421;28;20386;-63
2022/05/19 07:36:06;;;;;;;6.00;2.40;;;;;;;27.94;36.96;100654.56;5091959;28;20191;-63
2022/05/19 07:38:34;;;;;;;5.65;2.03;;;;;;;28.13;35.67;100641.34;5092142;28;20202;-62
2022/05/19 07:41:02;;;;;;;4.20;1.80;;;;;;;28.26;36.40;100657.22;5092345;28;20223;-61
2022/05/19 07:43:39;;;;;;;3.28;1.67;;;;;;;29.06;34.20;100654.75;5092398;28;20191;-62
2022/05/19 07:46:07;;;;;;;4.43;2.92;;;;;;;29.21;33.07;100652.53;5092247;28;20239;-60
2022/05/19 07:48:35;;;;;;;7.28;3.08;;;;;;;29.49;31.81;100649.13;5091945;28;20286;-57
2022/05/19 07:51:03;;;;;;;4.75;2.70;;;;;;;29.37;32.12;100652.88;5091609;28;20567;-57
2022/05/19 07:53:30;;;;;;;4.68;1.90;;;;;;;29.56;30.02;100650.28;5091558;28;20757;-58
2022/05/19 07:55:57;;;;;;;2.78;1.55;;;;;;;30.51;29.12;100655.75;5087592;28;20199;-58
2022/05/19 07:58:24;;;;;;;2.72;1.70;;;;;;;30.40;30.20;100652.41;5090520;28;20429;-58
2022/05/19 08:00:52;;;;;;;5.22;1.60;;;;;;;30.77;29.06;100657.84;5090676;28;20198;-57
2022/05/19 08:03:22;;;;;;;3.10;1.90;;;;;;;30.78;28.96;100651.50;5091100;28;20194;-62
2022/05/19 08:05:51;;;;;;;7.80;5.13;;;;;;;30.19;27.80;100655.25;5089759;28;20739;-57
2022/05/19 08:08:18;;;;;;;5.35;3.10;;;;;;;30.15;27.91;100653.81;5090295;28;20195;-57
2022/05/19 08:10:45;;;;;;;2.65;1.60;;;;;;;30.09;27.94;100649.06;5090670;28;20203;-57
2022/05/19 08:15:57;;;;;;;4.80;1.67;;;;;;;30.53;27.51;100663.69;5088325;28;20240;-57
2022/05/19 08:18:26;;;;;;;4.43;2.20;;;;;;;30.64;28.43;100656.31;5090472;28;20191;-57
2022/05/19 08:20:58;;;;;;;2.95;1.75;;;;;;;30.66;28.33;100654.34;5087719;28;20282;-57
2022/05/19 08:23:27;;;;;;;5.28;1.90;;;;;;;30.65;28.42;100646.44;5090473;28;20199;-57
2022/05/19 08:25:55;;;;;;;3.05;1.60;;;;;;;30.55;28.29;100657.19;5090666;28;20199;-62
2022/05/19 08:28:29;;;;;;;3.85;1.60;;;;;;;29.01;29.19;100643.59;5089731;28;20209;-62
2022/05/19 08:30:57;;;;;;;5.95;1.90;;;;;;;28.46;30.43;100645.69;5090417;28;20203;-63
2022/05/19 08:33:24;;;;;;;2.00;1.80;;;;;;;28.20;31.10;100640.88;5090875;28;20203;-58
2022/05/19 08:35:51;;;;;;;5.07;1.95;;;;;;;27.91;35.40;100637.94;5090722;28;20278;-57
2022/05/19 08:38:20;;;;;;;1.90;1.75;;;;;;;27.92;32.48;100635.16;5090637;28;20282;-57
2022/05/19 08:40:50;;;;;;;5.35;1.90;;;;;;;27.87;31.93;100642.69;5090340;28;20192;-61
2022/05/19 08:43:21;;;;;;;2.50;2.30;;;;;;;27.83;31.22;100646.59;5090416;28;20717;-64
2022/05/19 08:45:52;;;;;;;4.85;2.17;;;;;;;27.73;30.31;100637.66;5089887;28;20231;-64
2022/05/19 08:48:21;;;;;;;1.88;1.77;;;;;;;27.55;30.73;100642.66;5089803;28;20659;-65
2022/05/19 08:50:52;;;;;;;4.32;2.17;;;;;;;27.68;28.98;100642.50;5090488;28;20705;-62
2022/05/19 08:53:20;;;;;;;2.35;2.15;;;;;;;27.41;29.26;100646.44;5090443;28;20713;-58
2022/05/19 08:55:51;;;;;;;2.00;1.65;;;;;;;27.36;29.14;100637.94;5090077;28;20286;-57
2022/05/19 08:58:42;;;;;;;3.28;1.67;;;;;;;27.16;28.59;100644.03;5090349;28;20294;-59
2022/05/19 09:01:17;;;;;;;4.00;2.55;;;;;;;26.92;28.96;100641.50;5089895;28;20196;-56
2022/05/19 09:03:57;;;;;;;4.93;2.20;;;;;;;27.04;30.79;100637.88;5090019;28;20199;-58
2022/05/19 09:06:38;;;;;;;4.78;1.63;;;;;;;27.05;30.30;100638.72;5090119;28;20228;-58
2022/05/19 09:09:22;;;;;;;6.32;2.03;;;;;;;27.06;29.66;100632.44;5090291;28;20191;-57
2022/05/19 09:11:57;;;;;;;3.63;1.70;;;;;;;26.59;30.16;100626.34;5089886;28;20198;-57
2022/05/19 09:14:27;;;;;;;2.58;2.38;;;;;;;26.49;30.67;100630.69;5090035;28;20285;-57
2022/05/19 09:17:00;;;;;;;9.98;1.80;;;;;;;26.18;28.97;100624.16;5089670;28;20205;-58
2022/05/19 09:19:34;;;;;;;2.03;1.73;;;;;;;26.28;29.50;100627.84;5090239;28;20692;-58
2022/05/19 09:22:07;;;;;;;2.20;2.10;;;;;;;26.41;29.12;100611.78;5089965;28;20329;-57
2022/05/19 09:24:36;;;;;;;6.57;1.77;;;;;;;26.20;28.47;100618.69;5090001;28;20203;-58
2022/05/19 09:27:03;;;;;;;2.97;2.78;;;;;;;25.89;29.21;100615.72;5089861;28;20265;-58
2022/05/19 09:29:34;;;;;;;1.63;1.52;;;;;;;26.03;28.53;100626.16;5090311;28;20234;-59
2022/05/19 09:32:12;;;;;;;3.28;1.52;;;;;;;26.16;27.96;100612.78;5089507;28;20191;-58
2022/05/19 09:34:42;;;;;;;1.80;1.70;;;;;;;26.54;27.91;100609.84;5069674;28;20196;-58
2022/05/19 09:37:12;;;;;;;3.20;1.65;;;;;;;26.60;27.16;100612.03;5069921;28;20192;-58
2022/05/19 09:39:52;;;;;;;1.90;1.80;;;;;;;26.59;27.79;100609.50;5072954;28;20221;-59
2022/05/19 09:42:24;;;;;;;2.28;1.63;;;;;;;26.63;28.68;100593.16;5088315;28;20231;-57
2022/05/19 09:44:56;;;;;;;2.25;1.60;;;;;;;26.43;27.69;100585.03;5088904;28;20313;-57
2022/05/19 09:47:30;;;;;;;1.73;1.50;;;;;;;26.27;27.21;100596.00;5089832;28;20603;-57
2022/05/19 09:50:05;;;;;;;3.58;2.22;;;;;;;26.26;28.91;100589.81;5089462;28;20245;-63
2022/05/19 09:52:33;;;;;;;5.03;1.73;;;;;;;26.22;27.38;100587.50;5090035;28;20232;-64
2022/05/19 09:55:04;;;;;;;3.92;1.80;;;;;;;26.48;28.67;100586.38;5089838;28;20674;-63
2022/05/19 09:57:42;;;;;;;3.53;1.80;;;;;;;26.29;28.58;100580.78;5089752;28;20199;-63
2022/05/19 10:00:27;;;;;;;8.90;2.55;;;;;;;26.48;29.36;100581.06;5089819;28;20281;-65
2022/05/19 10:02:58;;;;;;;2.13;2.03;;;;;;;26.48;28.84;100570.41;5086996;28;20301;-64
2022/05/19 10:05:36;;;;;;;2.08;1.90;;;;;;;26.37;29.11;100592.53;5089543;28;20199;-63
2022/05/19 10:08:07;;;;;;;4.70;1.70;;;;;;;25.84;28.90;100575.31;5088737;28;20195;-63
2022/05/19 10:10:43;;;;;;;4.90;2.20;;;;;;;25.83;29.13;100573.63;5089400;28;20195;-63
2022/05/19 10:13:14;;;;;;;3.40;2.38;;;;;;;25.65;30.04;100570.50;5088719;28;20195;-63
2022/05/19 10:15:50;;;;;;;2.38;1.85;;;;;;;25.47;30.52;100571.00;5089389;28;20242;-64
2022/05/19 10:18:30;;;;;;;2.67;2.00;;;;;;;25.31;29.28;100555.34;5088670;28;20274;-62
2022/05/19 10:21:08;;;;;;;3.20;2.50;;;;;;;25.01;31.04;100547.81;5089592;28;20201;-62
2022/05/19 10:23:52;;;;;;;3.00;1.88;;;;;;;24.90;31.70;100548.53;5090004;28;20242;-61
2022/05/19 10:26:35;;;;;;;4.60;2.08;;;;;;;24.45;33.05;100546.50;5089902;28;20206;-63
2022/05/19 10:32:26;;;;;;;3.13;1.63;;;;;;;23.96;34.15;100541.03;5093791;28;20685;-63
2022/05/19 10:35:03;;;;;;;1.98;1.88;;;;;;;23.69;38.08;100531.34;5093934;28;20663;-62
2022/05/19 10:37:44;;;;;;;2.88;2.55;;;;;;;23.68;36.64;100529.66;5093820;28;20195;-62
2022/05/19 10:40:29;;;;;;;3.45;1.60;;;;;;;23.53;36.39;100525.34;5093671;28;20199;-62
2022/05/19 10:43:05;;;;;;;2.65;2.00;;;;;;;23.57;37.83;100518.91;5093305;28;20309;-62
2022/05/19 10:45:35;;;;;;;3.28;1.90;;;;;;;23.52;36.93;100516.56;5093487;28;20686;-63
2022/05/19 10:48:45;;;;;;;1.80;1.70;;;;;;;23.46;36.58;100524.03;5093497;28;20195;-63
2022/05/19 10:51:14;;;;;;;2.03;1.60;;;;;;;23.15;35.34;100515.44;5083000;28;20671;-63
2022/05/19 10:54:02;;;;;;;2.13;1.50;;;;;;;23.05;36.73;100514.34;5093283;28;20191;-63
2022/05/19 10:56:46;;;;;;;6.15;1.83;;;;;;;23.03;37.67;100518.88;5093365;28;20660;-62
2022/05/19 10:59:28;;;;;;;1.83;1.73;;;;;;;23.14;38.45;100512.88;5092941;28;20272;-62
2022/05/19 11:02:09;;;;;;;2.60;1.40;;;;;;;23.12;35.40;100502.41;5092488;28;20289;-58
2022/05/19 11:05:08;;;;;;;2.42;1.95;;;;;;;23.17;36.73;100507.38;5092217;28;20231;-58
2022/05/19 11:07:52;;;;;;;2.60;2.38;;;;;;;23.18;36.05;100507.28;5077108;28;20220;-59
2022/05/19 11:10:32;;;;;;;3.47;3.25;;;;;;;23.14;36.25;100495.19;5071372;28;20220;-58
2022/05/19 11:13:11;;;;;;;2.13;1.90;;;;;;;23.07;36.16;100488.59;5071388;28;20265;-58
2022/05/19 11:15:44;;;;;;;2.63;1.60;;;;;;;23.17;37.86;100491.50;5088723;28;20237;-59
2022/05/19 11:18:17;;;;;;;1.50;1.50;;;;;;;23.20;37.03;100490.47;5091142;28;20191;-59
2022/05/19 11:21:00;;;;;;;2.45;1.60;;;;;;;23.38;37.47;100486.59;5073099;28;20612;-58
2022/05/19 11:23:34;;;;;;;4.20;2.05;;;;;;;23.56;39.29;100474.81;5092004;28;20764;-59
2022/05/19 11:26:27;;;;;;;4.00;2.10;;;;;;;23.64;37.12;100476.94;5084038;28;20199;-57
2022/05/19 11:29:08;;;;;;;2.45;1.95;;;;;;;23.52;36.25;100470.66;5090668;28;20222;-58
2022/05/19 11:31:43;;;;;;;3.30;1.63;;;;;;;23.58;35.73;100472.91;5090460;28;20609;-57
2022/05/19 11:34:21;;;;;;;2.25;1.92;;;;;;;23.45;36.86;100467.53;5089154;28;20201;-59
2022/05/19 11:36:55;;;;;;;2.17;1.98;;;;;;;23.53;36.49;100462.59;5089320;28;20198;-58
2022/05/19 11:39:29;;;;;;;1.95;1.83;;;;;;;23.46;36.79;100457.78;5087351;28;20196;-58
2022/05/19 11:42:01;;;;;;;1.83;1.67;;;;;;;23.49;37.26;100455.75;5090282;28;20199;-60
2022/05/19 11:44:31;;;;;;;11.52;7.80;;;;;;;23.39;38.10;100438.78;5091128;28;20223;-63
2022/05/19 11:47:07;;;;;;;3.00;2.33;;;;;;;23.52;35.80;100452.09;5091667;28;20667;-60